»·PEaware :: N982ZA NONE-KSAN

N982ZA :: NONE-KSAN

FLIGHT INFORMATION

Flight Status: Arrived
Operator: Privately registered:
United States
More flights under this callsign
Pilot: Anonymous 15639 (15639)
Aircraft: PIPER PA-28R-201 ARROW
(P28R)
More flights by this aircraft type
Origin: NONE
Destination: KSAN San Diego Intl-Lindbergh
United States
More flights between these airports :: More routes between these airports
Route: +
File this flight plan on PilotEdge
Remarks:
Altitude:
(Current/Filed)
0ft
Speed:
(Current/Filed)
0kts
Departed: 07-May-18 12:58 PM
Arrived: 07-May-18 01:41 PM
Distance/Time
Traveled:
Not Available
Distance/Time
To Go:
Arrived

Flight Plot

Page will automatically refresh every two minutes.

Flight plan parsing failed; only flown route is shown


Map Options




Map Legend


Flown Route
Filed Route
Departure Airport
Arrival Airport
Navaid (VOR, NDB)
Fix

Horizontal Profiles

Position Reports

Time Latitude Longitude Heading Altitude Ground
Speed
07-May-18 12:57 33.884030 -116.206685 200 8284ft 131kts
07-May-18 12:58 33.851351 -116.223520 200 8284ft 124kts
07-May-18 12:59 33.819812 -116.239821 200 8260ft 126kts
07-May-18 13:00 33.787631 -116.256493 199 8278ft 125kts
07-May-18 13:01 33.755422 -116.273164 199 8322ft 129kts
07-May-18 13:02 33.722792 -116.290063 200 8386ft 128kts
07-May-18 13:03 33.690112 -116.306955 200 8419ft 127kts
07-May-18 13:04 33.657704 -116.323708 200 8479ft 126kts
07-May-18 13:05 33.628847 -116.338631 201 8547ft 125kts
07-May-18 13:06 33.596310 -116.355276 200 8525ft 128kts
07-May-18 13:07 33.561147 -116.359398 183 8507ft 127kts
07-May-18 13:08 33.525515 -116.361394 182 8472ft 128kts
07-May-18 13:09 33.491404 -116.370031 206 8465ft 127kts
07-May-18 13:10 33.460197 -116.390446 206 8459ft 128kts
07-May-18 13:11 33.429620 -116.409799 205 8444ft 129kts
07-May-18 13:12 33.397593 -116.429565 206 8425ft 132kts
07-May-18 13:13 33.365084 -116.449425 206 8492ft 131kts
07-May-18 13:14 33.332437 -116.469052 206 8547ft 131kts
07-May-18 13:14 33.306979 -116.484512 207 8539ft 132kts
07-May-18 13:15 33.274327 -116.505031 207 8555ft 132kts
07-May-18 13:16 33.241599 -116.525167 207 8572ft 132kts
07-May-18 13:17 33.208713 -116.544741 207 8590ft 132kts
07-May-18 13:18 33.175654 -116.564291 207 8608ft 132kts
07-May-18 13:19 33.143096 -116.585762 213 8373ft 136kts
07-May-18 13:20 33.114400 -116.617350 226 7826ft 142kts
07-May-18 13:21 33.086716 -116.651088 225 7329ft 141kts
07-May-18 13:22 33.059124 -116.683992 227 6821ft 140kts
07-May-18 13:23 33.033015 -116.717929 225 6303ft 139kts
07-May-18 13:24 33.003664 -116.747758 221 5813ft 138kts
07-May-18 13:25 32.970081 -116.769884 208 5383ft 137kts
07-May-18 13:26 32.935858 -116.790065 208 4988ft 136kts
07-May-18 13:27 32.903861 -116.812691 229 4620ft 133kts
07-May-18 13:28 32.882817 -116.847355 233 4307ft 130kts
07-May-18 13:29 32.861769 -116.882036 238 4010ft 127kts
07-May-18 13:30 32.846608 -116.919736 247 3609ft 126kts
07-May-18 13:31 32.835131 -116.959019 252 3237ft 125kts
07-May-18 13:32 32.824823 -116.997604 249 3035ft 116kts
07-May-18 13:34 32.814407 -117.033262 249 2990ft 115kts
07-May-18 13:35 32.803636 -117.068890 249 2920ft 112kts
07-May-18 13:36 32.787952 -117.100630 240 2256ft 110kts
07-May-18 13:37 32.773075 -117.131173 224 1433ft 94kts
07-May-18 13:38 32.751115 -117.141729 197 1029ft 80kts
07-May-18 13:39 32.729299 -117.148137 214 915ft 77kts
07-May-18 13:40 32.728703 -117.169213 277 272ft 66kts
07-May-18 13:41 32.732720 -117.186307 288 17ft 20kts
07-May-18 13:42 32.734076 -117.188067 19 18ft 0kts
07-May-18 13:43 32.734076 -117.188067 19 18ft 0kts
07-May-18 13:44 32.734076 -117.188067 19 18ft 0kts
07-May-18 13:45 32.734076 -117.188067 19 18ft 0kts
07-May-18 13:46 32.734044 -117.186936 106 18ft 7kts
07-May-18 13:47 32.733480 -117.184597 105 17ft 9kts
07-May-18 13:48 32.735113 -117.183744 51 18ft 4kts
07-May-18 13:49 32.735249 -117.183516 55 18ft 0kts

Navigation Log

Ident Type
Flight plan parsing failed, navigation log unavailable